Time;durP1;ratioP1;P1;durP2;ratioP2;P2;SDS_P1;SDS_P2;PMS_P1;PMS_P2;Temp;Humidity;BMP_temperature;BMP_pressure;BME280_temperature;BME280_humidity;BME280_pressure;Samples;Min_cycle;Max_cycle;Signal;HPM_P1;HPM_P2
2023/05/27 00:00:10;;;;;;;28.38;5.97;;;12.10;99.90;;;;;;5073052;28;20035;-86
2023/05/27 00:02:35;;;;;;;20.48;5.45;;;12.00;99.90;;;;;;5075246;28;20040;-87
2023/05/27 00:05:01;;;;;;;23.02;6.30;;;12.00;99.90;;;;;;5073659;28;20497;-86
2023/05/27 00:07:27;;;;;;;24.60;5.28;;;12.00;99.90;;;;;;5057303;28;20024;-84
2023/05/27 00:09:54;;;;;;;19.92;5.47;;;12.00;99.90;;;;;;5073665;28;20060;-84
2023/05/27 00:12:19;;;;;;;18.48;5.82;;;11.90;99.90;;;;;;5072041;28;20033;-86
2023/05/27 00:14:46;;;;;;;26.33;5.40;;;11.90;99.90;;;;;;5054452;28;20036;-86
2023/05/27 00:17:13;;;;;;;23.67;5.50;;;11.90;99.90;;;;;;5061191;28;20119;-86
2023/05/27 00:19:40;;;;;;;19.30;5.10;;;11.80;99.90;;;;;;5057362;28;20031;-86
2023/05/27 00:22:06;;;;;;;21.80;6.10;;;11.80;99.90;;;;;;5056839;28;20038;-86
2023/05/27 00:24:38;;;;;;;23.10;5.85;;;11.80;99.90;;;;;;5073631;28;20029;-87
2023/05/27 00:27:05;;;;;;;27.10;6.80;;;11.70;99.90;;;;;;5056989;28;20043;-85
2023/05/27 00:29:31;;;;;;;23.90;5.72;;;11.70;99.90;;;;;;5056154;28;20424;-86
2023/05/27 00:31:56;;;;;;;20.13;4.95;;;11.70;99.90;;;;;;5073032;28;20189;-87
2023/05/27 00:34:22;;;;;;;22.02;5.93;;;11.60;99.90;;;;;;5056867;28;20389;-86
2023/05/27 00:36:48;;;;;;;25.75;6.18;;;11.60;99.90;;;;;;5073299;28;20425;-87
2023/05/27 00:39:13;;;;;;;20.33;5.40;;;11.60;99.90;;;;;;5073727;28;20487;-86
2023/05/27 00:41:47;;;;;;;29.23;6.40;;;11.60;99.90;;;;;;5073298;28;20510;-86
2023/05/27 00:44:50;;;;;;;22.55;5.97;;;11.50;99.90;;;;;;5090426;28;20046;-86
2023/05/27 00:47:17;;;;;;;20.15;4.90;;;11.50;99.90;;;;;;5083040;28;20031;-86
2023/05/27 00:49:43;;;;;;;29.23;7.85;;;11.50;99.90;;;;;;5107446;28;20054;-86
2023/05/27 00:52:09;;;;;;;22.88;5.68;;;11.40;99.90;;;;;;5057058;28;20117;-87
2023/05/27 00:54:35;;;;;;;27.98;5.85;;;11.40;99.90;;;;;;5056486;28;20111;-86
2023/05/27 00:57:02;;;;;;;27.08;7.72;;;11.40;99.90;;;;;;5056341;28;20491;-86
2023/05/27 00:59:28;;;;;;;25.52;6.20;;;11.30;99.90;;;;;;5068540;28;20468;-85
2023/05/27 01:01:54;;;;;;;17.27;4.68;;;11.30;99.90;;;;;;5056080;28;20479;-84
2023/05/27 01:04:20;;;;;;;17.13;5.25;;;11.30;99.90;;;;;;5056161;28;20029;-86
2023/05/27 01:07:30;;;;;;;28.23;5.85;;;11.30;99.90;;;;;;5056625;28;20029;-85
2023/05/27 01:10:09;;;;;;;19.77;5.65;;;11.30;99.90;;;;;;5026835;28;20026;-86
2023/05/27 01:12:50;;;;;;;25.92;5.78;;;11.20;99.90;;;;;;5070280;28;20036;-85
2023/05/27 01:15:17;;;;;;;;;;;11.20;99.90;;;;;;5111054;28;20024;-86
2023/05/27 01:17:46;;;;;;;22.73;4.93;;;11.20;99.90;;;;;;5077015;28;20283;-86
2023/05/27 01:20:14;;;;;;;27.25;5.95;;;11.10;99.90;;;;;;5060341;28;20460;-85
2023/05/27 01:22:42;;;;;;;18.98;5.38;;;11.10;99.90;;;;;;5060063;28;20040;-86
2023/05/27 01:25:09;;;;;;;24.17;5.72;;;11.10;99.90;;;;;;5059872;28;20476;-86
2023/05/27 01:27:35;;;;;;;20.80;5.30;;;11.00;99.90;;;;;;5060050;28;20025;-86
2023/05/27 01:34:00;;;;;;;23.05;5.07;;;10.90;99.90;;;;;;5077911;28;20031;-85
2023/05/27 01:36:30;;;;;;;25.48;5.43;;;10.80;99.90;;;;;;5076753;28;20024;-85
2023/05/27 01:38:58;;;;;;;20.00;4.67;;;10.90;99.90;;;;;;5076540;28;20033;-86
2023/05/27 01:41:26;;;;;;;21.33;5.20;;;10.80;99.90;;;;;;5059403;28;20863;-85
2023/05/27 01:43:53;;;;;;;21.63;5.63;;;10.70;99.90;;;;;;5110939;28;20169;-86
2023/05/27 01:46:19;;;;;;;19.45;5.03;;;10.70;99.90;;;;;;5059111;28;20020;-85
2023/05/27 01:48:44;;;;;;;25.98;5.50;;;10.70;99.90;;;;;;5110181;28;20035;-86
2023/05/27 01:51:10;;;;;;;14.57;5.03;;;10.70;99.90;;;;;;5059310;28;20024;-86
2023/05/27 01:53:48;;;;;;;14.43;4.13;;;10.70;99.90;;;;;;5059950;28;20028;-85
2023/05/27 01:56:13;;;;;;;18.20;4.50;;;10.70;99.90;;;;;;5075858;28;20024;-86
2023/05/27 01:58:39;;;;;;;20.92;5.00;;;10.60;99.90;;;;;;5059703;28;20089;-86
2023/05/27 02:01:05;;;;;;;34.50;7.47;;;10.50;99.90;;;;;;5075866;28;20119;-86
2023/05/27 02:03:31;;;;;;;19.77;4.50;;;10.50;99.90;;;;;;5058489;28;20029;-85
2023/05/27 02:05:56;;;;;;;21.63;5.30;;;10.50;99.90;;;;;;5058951;28;20031;-86
2023/05/27 02:08:22;;;;;;;18.42;5.10;;;10.50;99.90;;;;;;5059796;28;20463;-85
2023/05/27 02:10:48;;;;;;;30.42;5.60;;;10.40;99.90;;;;;;5075930;28;20081;-85
2023/05/27 02:13:14;;;;;;;16.88;5.28;;;10.40;99.90;;;;;;5059299;28;20032;-85
2023/05/27 02:15:40;;;;;;;28.38;5.40;;;10.40;99.90;;;;;;5059120;28;20032;-85
2023/05/27 02:18:06;;;;;;;20.55;5.25;;;10.40;99.90;;;;;;5059330;28;20031;-85
2023/05/27 02:20:32;;;;;;;17.58;4.72;;;10.30;99.90;;;;;;5075211;28;20029;-85
2023/05/27 02:22:58;;;;;;;19.35;5.18;;;10.40;99.90;;;;;;5074592;28;20028;-85
2023/05/27 02:25:24;;;;;;;20.20;4.97;;;10.30;99.90;;;;;;5058621;28;20467;-85
2023/05/27 02:27:52;;;;;;;19.23;4.78;;;10.30;99.90;;;;;;5059071;28;20060;-85
2023/05/27 02:30:17;;;;;;;19.45;5.00;;;10.20;99.90;;;;;;5059163;28;20028;-86
2023/05/27 02:32:44;;;;;;;26.10;5.47;;;10.30;99.90;;;;;;5058873;28;20067;-85
2023/05/27 02:35:14;;;;;;;19.38;5.07;;;10.10;99.90;;;;;;5058503;28;20495;-85
2023/05/27 02:37:40;;;;;;;23.23;5.22;;;10.10;99.90;;;;;;5060196;28;20427;-85
2023/05/27 02:40:08;;;;;;;21.40;5.57;;;10.20;99.90;;;;;;5091188;28;20028;-85
2023/05/27 02:42:34;;;;;;;15.02;5.03;;;10.20;99.90;;;;;;5056283;28;20031;-85
2023/05/27 02:45:00;;;;;;;24.70;5.25;;;10.20;99.90;;;;;;5057696;28;20040;-85
2023/05/27 02:47:26;;;;;;;16.52;4.72;;;10.20;99.90;;;;;;5058094;28;20073;-86
2023/05/27 02:49:51;;;;;;;23.92;5.78;;;10.10;99.90;;;;;;5074893;28;20029;-85
2023/05/27 02:52:17;;;;;;;23.35;5.78;;;10.00;99.90;;;;;;5055774;28;20036;-85
2023/05/27 02:54:43;;;;;;;26.02;5.80;;;9.90;99.90;;;;;;5051462;28;20040;-86
2023/05/27 02:57:09;;;;;;;23.90;5.63;;;9.90;99.90;;;;;;5055582;28;20472;-85
2023/05/27 02:59:34;;;;;;;20.13;5.20;;;9.80;99.90;;;;;;5064148;28;20024;-85
2023/05/27 03:02:00;;;;;;;27.33;5.88;;;9.80;99.90;;;;;;5087352;28;20123;-85
2023/05/27 03:04:26;;;;;;;22.13;5.07;;;9.70;99.90;;;;;;5095960;28;20020;-85
2023/05/27 03:06:52;;;;;;;16.92;5.15;;;9.80;99.90;;;;;;5097053;28;20367;-85
2023/05/27 03:09:17;;;;;;;19.00;5.53;;;9.70;99.90;;;;;;5069733;28;20016;-86
2023/05/27 03:11:43;;;;;;;23.13;5.75;;;9.70;99.90;;;;;;5053328;28;20115;-85
2023/05/27 03:14:10;;;;;;;21.80;5.13;;;9.80;99.90;;;;;;5083174;28;20024;-86
2023/05/27 03:16:36;;;;;;;19.10;4.30;;;9.80;99.90;;;;;;5048113;28;20024;-86
2023/05/27 03:19:03;;;;;;;12.90;5.30;;;9.80;99.90;;;;;;5067910;28;20079;-85
2023/05/27 03:21:29;;;;;;;18.50;5.25;;;9.70;99.90;;;;;;5098405;28;20029;-86
2023/05/27 03:23:55;;;;;;;21.95;4.32;;;9.70;99.90;;;;;;5065914;28;20476;-85
2023/05/27 03:26:21;;;;;;;14.77;4.90;;;9.70;99.90;;;;;;5074268;28;20123;-86
2023/05/27 03:28:48;;;;;;;19.65;5.60;;;9.60;99.90;;;;;;5061863;28;20021;-87
2023/05/27 03:35:10;;;;;;;15.13;4.07;;;9.60;99.90;;;;;;5074587;28;20061;-87
2023/05/27 03:37:36;;;;;;;16.67;5.15;;;9.60;99.90;;;;;;5057858;28;20021;-86
2023/05/27 03:40:05;;;;;;;18.88;4.65;;;9.60;99.90;;;;;;5074970;28;20484;-86
2023/05/27 03:42:32;;;;;;;18.58;5.22;;;9.50;99.90;;;;;;5058290;28;20025;-87
2023/05/27 03:44:58;;;;;;;23.48;5.00;;;9.50;99.90;;;;;;5058648;28;20388;-87
2023/05/27 03:47:26;;;;;;;22.90;5.30;;;9.60;99.90;;;;;;5058995;28;20569;-86
2023/05/27 03:49:52;;;;;;;29.85;5.38;;;9.60;99.90;;;;;;5058016;28;20028;-86
2023/05/27 03:52:18;;;;;;;28.52;7.53;;;9.60;99.90;;;;;;5057580;28;20074;-86
2023/05/27 03:54:44;;;;;;;20.55;6.82;;;9.60;99.90;;;;;;5067171;28;20036;-87
2023/05/27 03:57:10;;;;;;;24.25;4.78;;;9.60;99.90;;;;;;5058137;28;20484;-87
2023/05/27 03:59:37;;;;;;;29.13;6.10;;;9.70;99.90;;;;;;5058128;28;20069;-87
2023/05/27 04:02:03;;;;;;;16.70;5.32;;;9.70;99.90;;;;;;5073791;28;20028;-86
2023/05/27 04:04:29;;;;;;;22.02;4.82;;;9.70;99.90;;;;;;5108523;28;20017;-87
2023/05/27 04:06:55;;;;;;;21.17;4.38;;;9.70;99.90;;;;;;5057914;28;20120;-87
2023/05/27 04:09:21;;;;;;;14.10;4.65;;;9.70;99.90;;;;;;5056181;28;20024;-86
2023/05/27 04:11:46;;;;;;;22.20;4.53;;;9.80;99.90;;;;;;5057661;28;20032;-86
2023/05/27 04:14:12;;;;;;;21.45;4.95;;;9.90;99.90;;;;;;5057828;28;20032;-88
2023/05/27 04:16:41;;;;;;;19.42;4.70;;;9.90;99.90;;;;;;5058068;28;20035;-87
2023/05/27 04:19:07;;;;;;;18.95;5.07;;;10.00;99.90;;;;;;5057616;28;20040;-87
2023/05/27 04:21:33;;;;;;;27.42;5.50;;;10.00;99.90;;;;;;5073947;28;20427;-87
2023/05/27 04:24:01;;;;;;;19.42;4.78;;;10.00;99.90;;;;;;5107545;28;20086;-87
2023/05/27 04:26:28;;;;;;;29.75;5.45;;;10.00;99.90;;;;;;5057335;28;20023;-86
2023/05/27 04:28:54;;;;;;;19.05;5.20;;;10.00;99.90;;;;;;5056873;28;20539;-87
2023/05/27 04:31:28;;;;;;;29.52;5.40;;;10.00;99.90;;;;;;5056690;28;20055;-87
2023/05/27 04:33:59;;;;;;;17.58;4.68;;;10.10;99.90;;;;;;5050214;28;20025;-87
2023/05/27 04:36:26;;;;;;;18.00;4.93;;;10.10;99.90;;;;;;5072779;28;20720;-87
2023/05/27 04:39:02;;;;;;;19.98;4.72;;;10.20;99.90;;;;;;5058330;28;20119;-87
2023/05/27 04:41:30;;;;;;;17.95;4.10;;;10.30;99.90;;;;;;5056629;28;20055;-87
2023/05/27 04:44:26;;;;;;;20.17;4.93;;;10.30;99.90;;;;;;5067546;28;20024;-86
2023/05/27 04:46:54;;;;;;;14.07;4.50;;;10.40;99.90;;;;;;5073721;28;20028;-87
2023/05/27 04:49:22;;;;;;;21.38;5.40;;;10.40;99.90;;;;;;5057623;28;20035;-87
2023/05/27 04:51:48;;;;;;;24.80;5.70;;;10.60;99.90;;;;;;5057403;28;20086;-87
2023/05/27 04:54:16;;;;;;;17.40;5.38;;;10.60;99.90;;;;;;5057333;28;20052;-86
2023/05/27 04:56:43;;;;;;;18.10;4.70;;;10.70;99.90;;;;;;5074164;28;20418;-86
2023/05/27 04:59:16;;;;;;;20.27;4.50;;;10.80;99.90;;;;;;5058157;28;20020;-87
2023/05/27 05:02:09;;;;;;;15.63;4.47;;;10.90;99.90;;;;;;5072666;28;20420;-87
2023/05/27 05:05:04;;;;;;;16.60;4.43;;;10.90;99.90;;;;;;5072380;28;20093;-87
2023/05/27 05:07:31;;;;;;;18.13;4.70;;;11.10;99.90;;;;;;5074132;28;20027;-87
2023/05/27 05:09:57;;;;;;;20.27;4.93;;;11.10;99.90;;;;;;5056704;28;20031;-87
2023/05/27 05:12:29;;;;;;;14.52;4.55;;;11.20;99.90;;;;;;5056774;28;20021;-87
2023/05/27 05:14:55;;;;;;;17.13;5.13;;;11.20;99.90;;;;;;5056871;28;20029;-87
2023/05/27 05:17:24;;;;;;;15.07;4.82;;;11.30;99.90;;;;;;5056320;28;20058;-87
2023/05/27 05:19:51;;;;;;;17.25;4.68;;;11.30;99.90;;;;;;5054035;28;20091;-86
2023/05/27 05:22:22;;;;;;;22.15;5.28;;;11.30;99.90;;;;;;5055339;28;20142;-87
2023/05/27 05:24:49;;;;;;;18.02;4.93;;;11.40;99.90;;;;;;5055330;28;20078;-86
2023/05/27 05:27:16;;;;;;;17.58;5.00;;;11.50;99.90;;;;;;5089690;28;20024;-87
2023/05/27 05:29:42;;;;;;;18.55;4.82;;;11.60;99.90;;;;;;5072558;28;20074;-87
2023/05/27 05:32:12;;;;;;;14.05;4.75;;;11.60;99.90;;;;;;5072476;28;20032;-88
2023/05/27 05:34:39;;;;;;;24.77;4.95;;;11.70;99.90;;;;;;5072556;28;20027;-88
2023/05/27 05:37:07;;;;;;;28.20;4.95;;;11.80;99.90;;;;;;5071548;28;20025;-87
2023/05/27 05:39:33;;;;;;;17.50;5.25;;;11.80;99.90;;;;;;5055616;28;20023;-88
2023/05/27 05:41:59;;;;;;;20.33;5.00;;;11.90;99.90;;;;;;5105964;28;20017;-87
2023/05/27 05:44:25;;;;;;;23.77;4.75;;;11.90;99.90;;;;;;5072522;28;20476;-86
2023/05/27 05:46:52;;;;;;;18.38;4.25;;;12.00;99.90;;;;;;5056416;28;20021;-87
2023/05/27 05:49:19;;;;;;;22.17;5.03;;;12.10;99.90;;;;;;5056387;28;20029;-87
2023/05/27 05:51:46;;;;;;;15.55;4.60;;;12.20;99.90;;;;;;5055816;28;20035;-87
2023/05/27 05:54:12;;;;;;;29.42;4.68;;;12.30;99.90;;;;;;5055862;28;20403;-88
2023/05/27 05:56:43;;;;;;;13.68;4.43;;;12.40;99.90;;;;;;5057777;28;20033;-87
2023/05/27 05:59:08;;;;;;;18.65;4.68;;;12.40;99.90;;;;;;5075819;28;20074;-87
2023/05/27 06:01:36;;;;;;;18.80;5.13;;;12.40;99.90;;;;;;5075525;28;20063;-87
2023/05/27 06:04:04;;;;;;;24.13;5.60;;;12.50;99.90;;;;;;5059495;28;20391;-87
2023/05/27 06:06:34;;;;;;;20.55;4.95;;;12.60;99.90;;;;;;5060274;28;20021;-87
2023/05/27 06:09:26;;;;;;;15.63;4.35;;;12.60;99.90;;;;;;5068563;28;20032;-87
2023/05/27 06:11:54;;;;;;;23.50;5.00;;;12.70;99.90;;;;;;5059020;28;20033;-87
2023/05/27 06:14:22;;;;;;;16.00;4.60;;;12.70;99.90;;;;;;5059640;28;20085;-88
2023/05/27 06:17:13;;;;;;;22.20;5.07;;;12.80;99.90;;;;;;5059333;28;20139;-85
2023/05/27 06:19:39;;;;;;;17.80;5.00;;;12.80;99.90;;;;;;5075724;28;20162;-84
2023/05/27 06:22:05;;;;;;;18.65;4.55;;;12.90;99.90;;;;;;5069121;28;20020;-86
2023/05/27 06:24:39;;;;;;;21.27;4.85;;;13.00;99.90;;;;;;5075503;28;21173;-87
2023/05/27 06:27:20;;;;;;;12.07;4.00;;;13.00;99.90;;;;;;5076861;28;20024;-87
2023/05/27 06:29:46;;;;;;;19.80;4.85;;;13.20;99.90;;;;;;5052626;28;20271;-86
2023/05/27 06:32:15;;;;;;;52.00;7.13;;;13.20;99.90;;;;;;5101614;28;20145;-86
2023/05/27 06:34:42;;;;;;;145.63;7.38;;;13.20;99.90;;;;;;5067541;28;20483;-86
2023/05/27 06:37:08;;;;;;;32.58;4.63;;;13.30;99.90;;;;;;5058805;28;20028;-88
2023/05/27 06:39:34;;;;;;;24.20;4.72;;;13.40;99.90;;;;;;5058486;28;20024;-88
2023/05/27 06:41:59;;;;;;;89.60;8.18;;;13.50;99.90;;;;;;5053573;28;20041;-87
2023/05/27 06:44:41;;;;;;;40.00;5.63;;;13.50;99.90;;;;;;5055442;28;20040;-87
2023/05/27 06:47:15;;;;;;;38.92;5.57;;;13.50;99.90;;;;;;5057006;28;20128;-88
2023/05/27 06:49:41;;;;;;;37.92;6.10;;;13.60;99.90;;;;;;5053634;28;20074;-88
2023/05/27 06:52:08;;;;;;;19.85;4.32;;;13.70;99.90;;;;;;5061400;28;20024;-87
2023/05/27 06:54:46;;;;;;;16.40;4.45;;;13.90;99.90;;;;;;5049380;28;20033;-87
2023/05/27 06:57:32;;;;;;;20.60;4.65;;;14.00;99.90;;;;;;5067693;28;20032;-88
2023/05/27 07:00:09;;;;;;;16.58;4.28;;;14.00;99.90;;;;;;5071385;28;20029;-87
2023/05/27 07:02:45;;;;;;;51.53;6.40;;;14.10;99.90;;;;;;5084683;28;20035;-86
2023/05/27 07:05:10;;;;;;;32.03;4.95;;;14.30;99.90;;;;;;5082522;28;20028;-85
2023/05/27 07:07:36;;;;;;;19.52;5.32;;;14.40;99.90;;;;;;5100361;27;20024;-87
2023/05/27 07:10:02;;;;;;;24.58;5.80;;;14.40;99.90;;;;;;5049356;28;20032;-87
2023/05/27 07:12:28;;;;;;;25.48;4.88;;;14.50;99.90;;;;;;5057881;28;20061;-86
2023/05/27 07:15:01;;;;;;;23.10;4.88;;;14.50;99.90;;;;;;5054609;28;20025;-86
2023/05/27 07:17:28;;;;;;;16.98;4.80;;;14.50;99.90;;;;;;5072094;28;20024;-88
2023/05/27 07:19:54;;;;;;;33.72;5.82;;;14.50;99.90;;;;;;5056353;28;20024;-87
2023/05/27 07:22:21;;;;;;;16.20;5.38;;;14.60;99.90;;;;;;5091999;28;20070;-86
2023/05/27 07:24:47;;;;;;;15.55;4.60;;;14.70;99.90;;;;;;5065195;28;20028;-88
2023/05/27 07:27:13;;;;;;;17.10;4.68;;;14.70;99.90;;;;;;5058175;28;20111;-88
2023/05/27 07:29:43;;;;;;;21.27;4.47;;;14.70;99.90;;;;;;5049713;28;20037;-87
2023/05/27 07:32:12;;;;;;;23.67;5.32;;;14.80;99.90;;;;;;5069804;28;20672;-89
2023/05/27 07:34:38;;;;;;;15.65;5.63;;;14.80;99.90;;;;;;5052938;28;20039;-88
2023/05/27 07:37:04;;;;;;;18.60;4.75;;;14.90;99.90;;;;;;5070815;28;20021;-88
2023/05/27 07:39:30;;;;;;;29.02;5.90;;;14.90;99.90;;;;;;5068380;28;20028;-88
2023/05/27 07:41:56;;;;;;;29.65;5.97;;;15.00;99.90;;;;;;5055720;28;20086;-88
2023/05/27 07:44:23;;;;;;;16.67;4.55;;;15.20;99.90;;;;;;5046446;28;20020;-88
2023/05/27 07:46:49;;;;;;;19.88;5.22;;;15.30;99.90;;;;;;5056480;28;20020;-88
2023/05/27 07:49:15;;;;;;;28.10;6.47;;;15.50;99.90;;;;;;5105628;27;20495;-88
2023/05/27 07:52:19;;;;;;;18.77;5.25;;;16.20;99.90;;;;;;5023593;28;20045;-88
2023/05/27 07:54:45;;;;;;;14.55;5.28;;;17.70;99.90;;;;;;5010621;28;20503;-88
2023/05/27 07:57:11;;;;;;;34.92;5.75;;;18.80;99.90;;;;;;5039018;28;20562;-89
2023/05/27 07:59:37;;;;;;;22.02;5.82;;;19.80;98.10;;;;;;5050229;28;20024;-88
2023/05/27 08:02:04;;;;;;;14.85;4.45;;;20.60;95.40;;;;;;5064640;28;20028;-88
2023/05/27 08:04:30;;;;;;;17.33;4.93;;;21.20;93.20;;;;;;5049470;28;20051;-87
2023/05/27 08:07:13;;;;;;;18.35;4.47;;;21.60;91.80;;;;;;5068050;28;20490;-88
2023/05/27 08:09:57;;;;;;;17.70;5.13;;;21.40;91.00;;;;;;5064047;28;20089;-89
2023/05/27 08:12:44;;;;;;;21.60;5.22;;;22.00;89.80;;;;;;5069554;28;20028;-88
2023/05/27 08:15:14;;;;;;;17.55;5.10;;;21.90;86.40;;;;;;5070602;28;20039;-87
2023/05/27 08:17:59;;;;;;;22.08;4.97;;;21.90;86.10;;;;;;5065556;28;20135;-88
2023/05/27 08:20:50;;;;;;;12.07;4.10;;;22.20;86.10;;;;;;5100223;28;20120;-88
2023/05/27 08:23:45;;;;;;;15.40;5.07;;;22.40;83.20;;;;;;5056464;28;20047;-87
2023/05/27 08:26:43;;;;;;;20.60;4.60;;;23.00;84.00;;;;;;5064290;28;20074;-88
2023/05/27 08:29:19;;;;;;;17.48;5.43;;;22.90;82.30;;;;;;5067865;28;20044;-85
2023/05/27 08:32:04;;;;;;;18.17;4.68;;;23.70;79.30;;;;;;5080605;28;20408;-86
2023/05/27 08:34:29;;;;;;;16.50;5.00;;;23.50;79.00;;;;;;5064856;28;20036;-86
2023/05/27 08:36:55;;;;;;;13.93;4.57;;;23.60;76.80;;;;;;5057684;28;20017;-87
2023/05/27 08:39:26;;;;;;;49.63;7.32;;;23.80;77.60;;;;;;5056989;28;20074;-87
2023/05/27 08:42:02;;;;;;;21.08;5.65;;;23.80;77.50;;;;;;5054210;28;20139;-86
2023/05/27 08:44:28;;;;;;;15.90;4.60;;;24.40;77.00;;;;;;5072723;28;20100;-87
2023/05/27 08:47:03;;;;;;;20.90;4.70;;;24.80;74.40;;;;;;5050198;28;20029;-87
2023/05/27 08:49:31;;;;;;;20.55;5.10;;;24.80;73.10;;;;;;5082846;28;20028;-87
2023/05/27 08:52:01;;;;;;;18.45;4.90;;;24.70;73.00;;;;;;5067024;28;20044;-87
2023/05/27 08:54:30;;;;;;;19.73;4.97;;;24.60;74.40;;;;;;5057457;28;20028;-88
2023/05/27 08:57:07;;;;;;;18.48;4.85;;;24.60;73.20;;;;;;5064497;28;20033;-88
2023/05/27 08:59:34;;;;;;;26.88;5.63;;;24.10;73.40;;;;;;5078752;28;20028;-88
2023/05/27 09:02:02;;;;;;;32.60;5.30;;;24.50;73.30;;;;;;5073635;28;20043;-87
2023/05/27 09:04:28;;;;;;;15.98;4.60;;;24.70;73.30;;;;;;5071489;28;20020;-86
2023/05/27 09:06:54;;;;;;;19.92;4.97;;;23.90;72.40;;;;;;5081012;28;20115;-87
2023/05/27 09:09:20;;;;;;;11.95;4.45;;;23.90;73.50;;;;;;5056087;28;20492;-88
2023/05/27 09:11:46;;;;;;;24.40;5.18;;;23.50;73.80;;;;;;5057932;28;20055;-89
2023/05/27 09:14:20;;;;;;;13.10;4.68;;;23.10;77.50;;;;;;5059854;28;20107;-88
2023/05/27 09:16:46;;;;;;;17.75;4.88;;;23.40;75.40;;;;;;5074372;28;20029;-87
2023/05/27 09:19:36;;;;;;;13.18;4.97;;;23.60;75.70;;;;;;5056556;28;20574;-87
2023/05/27 09:22:02;;;;;;;20.88;4.65;;;23.90;73.30;;;;;;5057952;28;20029;-88
2023/05/27 09:24:28;;;;;;;14.43;5.07;;;24.20;73.60;;;;;;5070419;28;20035;-87
2023/05/27 09:26:55;;;;;;;13.02;4.40;;;24.30;72.30;;;;;;5054264;28;20032;-88
2023/05/27 09:29:27;;;;;;;17.20;4.43;;;24.20;73.80;;;;;;5103316;28;20043;-86
2023/05/27 09:31:56;;;;;;;13.77;5.00;;;24.70;71.40;;;;;;5075977;28;20036;-87
2023/05/27 09:34:21;;;;;;;13.30;4.50;;;24.80;71.10;;;;;;5059564;28;20487;-87
2023/05/27 09:36:49;;;;;;;13.32;4.82;;;25.20;72.60;;;;;;5111066;28;20182;-87
2023/05/27 09:39:17;;;;;;;14.25;5.15;;;25.50;72.20;;;;;;5077138;28;20447;-88
2023/05/27 09:41:43;;;;;;;49.17;6.22;;;25.70;69.90;;;;;;5061407;28;20032;-87
2023/05/27 09:44:09;;;;;;;13.18;4.88;;;25.40;68.60;;;;;;5060679;28;20029;-86
2023/05/27 09:46:35;;;;;;;21.27;4.95;;;25.80;66.00;;;;;;5060160;28;20540;-88
2023/05/27 09:49:04;;;;;;;19.13;5.75;;;25.80;67.50;;;;;;5060942;28;20536;-88
2023/05/27 09:51:32;;;;;;;12.82;4.60;;;25.80;67.90;;;;;;5056796;28;20035;-88
2023/05/27 09:53:58;;;;;;;17.65;5.00;;;25.50;67.00;;;;;;5064935;28;20427;-89
2023/05/27 09:56:29;;;;;;;14.68;4.57;;;25.40;67.00;;;;;;5111231;28;20067;-87
2023/05/27 09:59:13;;;;;;;13.25;4.65;;;24.80;67.70;;;;;;5064862;28;20049;-88
2023/05/27 10:01:40;;;;;;;17.05;5.40;;;24.70;70.30;;;;;;5061659;28;20033;-87
2023/05/27 10:04:07;;;;;;;17.25;6.13;;;24.80;67.80;;;;;;5068126;28;20126;-87
2023/05/27 10:06:34;;;;;;;13.77;4.22;;;24.80;66.80;;;;;;5085958;28;20044;-88
2023/05/27 10:09:03;;;;;;;15.02;4.28;;;24.70;65.60;;;;;;5055445;28;20116;-88
2023/05/27 10:11:36;;;;;;;24.95;5.90;;;24.50;69.80;;;;;;5064090;28;20150;-88
2023/05/27 10:14:03;;;;;;;29.15;5.45;;;24.40;69.10;;;;;;5067460;28;20520;-86
2023/05/27 10:16:29;;;;;;;19.13;5.10;;;23.30;68.40;;;;;;5075323;28;20024;-87
2023/05/27 10:18:56;;;;;;;17.33;5.43;;;23.40;70.20;;;;;;5065404;28;20457;-87
2023/05/27 10:21:26;;;;;;;17.95;4.38;;;23.50;70.30;;;;;;5101764;28;20032;-87
2023/05/27 10:24:02;;;;;;;12.20;4.85;;;23.60;71.30;;;;;;5068587;28;20521;-87
2023/05/27 10:26:36;;;;;;;10.82;4.30;;;23.50;69.60;;;;;;5072924;28;20434;-88
2023/05/27 10:29:09;;;;;;;22.40;5.53;;;23.00;72.00;;;;;;5060743;28;20032;-89
2023/05/27 10:31:43;;;;;;;14.13;4.28;;;23.20;68.20;;;;;;5097432;27;20033;-87
2023/05/27 10:34:08;;;;;;;20.60;5.55;;;23.20;68.80;;;;;;5069847;28;20047;-88
2023/05/27 10:36:36;;;;;;;18.73;5.32;;;23.60;71.70;;;;;;5049003;28;20393;-88
2023/05/27 10:39:06;;;;;;;17.38;4.82;;;23.40;69.40;;;;;;5050191;28;20036;-88
2023/05/27 10:41:42;;;;;;;17.30;5.03;;;23.50;68.30;;;;;;5046557;28;20047;-87
2023/05/27 10:44:08;;;;;;;17.58;4.40;;;23.50;68.00;;;;;;5073812;28;20116;-87
2023/05/27 10:46:42;;;;;;;17.65;4.43;;;23.30;69.90;;;;;;5075760;28;20016;-88
2023/05/27 10:49:15;;;;;;;12.82;4.68;;;23.30;69.50;;;;;;5075354;28;20064;-88
2023/05/27 10:51:48;;;;;;;12.40;4.47;;;23.50;70.30;;;;;;5068189;28;20029;-88
2023/05/27 10:54:15;;;;;;;13.90;4.80;;;23.40;73.10;;;;;;5059289;28;20119;-87
2023/05/27 10:56:51;;;;;;;19.23;4.88;;;23.40;71.50;;;;;;5058924;28;20028;-86
2023/05/27 10:59:39;;;;;;;25.73;5.38;;;23.40;71.50;;;;;;5058514;28;20036;-87
2023/05/27 11:02:06;;;;;;;18.05;6.03;;;23.60;73.40;;;;;;5075071;28;20029;-87
2023/05/27 11:04:35;;;;;;;17.85;5.13;;;23.20;72.80;;;;;;5075508;28;20016;-88
2023/05/27 11:07:01;;;;;;;18.70;4.88;;;23.10;72.40;;;;;;5059661;28;20032;-88
2023/05/27 11:09:27;;;;;;;19.00;5.07;;;23.30;72.20;;;;;;5074064;28;20376;-86
2023/05/27 11:11:57;;;;;;;15.02;4.72;;;23.90;70.30;;;;;;5074797;28;20089;-88
2023/05/27 11:14:25;;;;;;;17.00;4.60;;;23.90;69.80;;;;;;5076259;28;20039;-88
2023/05/27 11:16:51;;;;;;;16.48;4.75;;;24.10;72.50;;;;;;5059761;28;20029;-87
2023/05/27 11:19:26;;;;;;;14.77;5.15;;;24.20;69.60;;;;;;5075807;28;20059;-87
2023/05/27 11:21:52;;;;;;;12.73;4.80;;;24.20;71.20;;;;;;5075201;28;20128;-87
2023/05/27 11:24:19;;;;;;;13.23;4.50;;;24.40;68.60;;;;;;5075736;28;20491;-88
2023/05/27 11:26:46;;;;;;;15.02;5.32;;;24.00;70.20;;;;;;5057789;28;20031;-88
2023/05/27 11:29:13;;;;;;;11.95;4.50;;;24.20;71.80;;;;;;5066103;28;20028;-87
2023/05/27 11:31:40;;;;;;;13.93;4.70;;;25.00;70.20;;;;;;5083519;28;20035;-89
2023/05/27 11:34:15;;;;;;;20.13;5.72;;;24.80;65.40;;;;;;5062151;28;20029;-88
2023/05/27 11:36:44;;;;;;;14.98;5.05;;;24.80;68.50;;;;;;5082930;28;20008;-89
2023/05/27 11:39:16;;;;;;;20.10;5.70;;;24.10;67.70;;;;;;5087935;28;20032;-88
2023/05/27 11:41:55;;;;;;;15.07;4.68;;;23.50;69.20;;;;;;5064223;28;20044;-88
2023/05/27 11:44:22;;;;;;;17.48;4.90;;;23.70;72.50;;;;;;5073505;28;20021;-88
2023/05/27 11:46:49;;;;;;;13.02;5.28;;;23.30;71.00;;;;;;5104707;27;20032;-87
2023/05/27 11:49:17;;;;;;;12.68;5.22;;;23.50;72.30;;;;;;5043485;28;20029;-88
2023/05/27 11:51:47;;;;;;;12.15;4.95;;;23.50;69.60;;;;;;5054881;28;20091;-88
2023/05/27 11:54:24;;;;;;;27.85;5.88;;;23.60;70.80;;;;;;5069387;28;20077;-88
2023/05/27 11:56:51;;;;;;;16.27;5.60;;;23.80;68.10;;;;;;5079542;28;20040;-88
2023/05/27 11:59:18;;;;;;;12.93;4.68;;;23.80;71.00;;;;;;5101697;27;20483;-89
2023/05/27 12:01:44;;;;;;;18.83;5.40;;;23.40;69.20;;;;;;5074657;28;20032;-88
2023/05/27 12:04:10;;;;;;;14.60;5.40;;;23.10;71.70;;;;;;5084883;28;20107;-88
2023/05/27 12:06:43;;;;;;;12.73;5.18;;;23.20;71.50;;;;;;5082967;28;20404;-87
2023/05/27 12:09:10;;;;;;;13.23;4.20;;;23.20;68.60;;;;;;5113225;27;20493;-88
2023/05/27 12:11:37;;;;;;;16.90;5.35;;;23.40;71.30;;;;;;5065504;28;20024;-88
2023/05/27 12:14:03;;;;;;;24.10;5.03;;;23.50;70.90;;;;;;5112827;27;20038;-88
2023/05/27 12:16:28;;;;;;;11.23;5.07;;;23.80;68.50;;;;;;5075500;28;20036;-89
2023/05/27 12:18:54;;;;;;;23.80;5.13;;;23.80;69.40;;;;;;5066002;28;20032;-87
2023/05/27 12:21:20;;;;;;;27.25;5.32;;;23.90;67.60;;;;;;5108049;27;20029;-87
2023/05/27 12:23:47;;;;;;;10.70;4.57;;;24.20;67.30;;;;;;5065968;28;20010;-88
2023/05/27 12:26:15;;;;;;;14.93;4.82;;;24.30;63.70;;;;;;5079678;28;20072;-88
2023/05/27 12:28:41;;;;;;;16.25;5.07;;;24.60;61.60;;;;;;5056622;28;20024;-88
2023/05/27 12:31:07;;;;;;;11.70;4.63;;;24.80;62.30;;;;;;5058471;28;20123;-89
2023/05/27 12:33:33;;;;;;;12.52;5.32;;;24.90;59.70;;;;;;5068144;28;20056;-88
2023/05/27 12:35:59;;;;;;;14.25;4.05;;;25.30;59.00;;;;;;5078738;28;20028;-88
2023/05/27 12:38:25;;;;;;;10.63;4.28;;;25.40;58.50;;;;;;5079294;28;20127;-89
2023/05/27 12:40:51;;;;;;;8.77;3.58;;;26.00;56.30;;;;;;5055453;28;20028;-88
2023/05/27 12:43:18;;;;;;;8.02;3.92;;;26.30;55.30;;;;;;5064275;28;20116;-89
2023/05/27 12:45:47;;;;;;;8.95;3.70;;;25.50;52.60;;;;;;5057454;28;20024;-90
2023/05/27 12:48:13;;;;;;;9.00;3.80;;;25.50;54.70;;;;;;5057832;28;20024;-90
2023/05/27 12:50:39;;;;;;;16.67;3.55;;;25.50;56.90;;;;;;5057224;28;20077;-88
2023/05/27 12:53:05;;;;;;;10.38;4.15;;;25.60;55.70;;;;;;5057546;28;20392;-89
2023/05/27 12:55:31;;;;;;;9.38;3.60;;;26.10;56.90;;;;;;5074800;28;20029;-89